createdAt,value
2019-06-10T00:00:41.457Z,8.18
2019-06-10T00:03:11.342Z,7.78
2019-06-10T00:05:41.126Z,11.00
2019-06-10T00:08:11.412Z,8.90
2019-06-10T00:10:38.650Z,9.95
2019-06-10T00:13:07.380Z,8.43
2019-06-10T00:15:36.315Z,8.88
2019-06-10T00:18:26.929Z,9.93
2019-06-10T00:20:34.231Z,10.63
2019-06-10T00:23:04.041Z,7.95
2019-06-10T00:25:32.409Z,10.98
2019-06-10T00:28:02.666Z,8.00
2019-06-10T00:30:31.303Z,8.10
2019-06-10T00:33:00.281Z,9.38
2019-06-10T00:35:28.859Z,7.87
2019-06-10T00:37:57.109Z,8.35
2019-06-10T00:40:24.915Z,9.00
2019-06-10T00:42:52.552Z,11.43
2019-06-10T00:45:21.634Z,10.63
2019-06-10T00:47:52.080Z,9.08
2019-06-10T00:50:21.687Z,8.20
2019-06-10T00:52:51.704Z,8.78
2019-06-10T00:55:21.165Z,8.20
2019-06-10T00:57:50.976Z,14.47
2019-06-10T01:00:25.576Z,9.97
2019-06-10T01:02:48.492Z,10.70
2019-06-10T01:05:17.907Z,11.68
2019-06-10T01:07:45.788Z,9.10
2019-06-10T01:10:14.629Z,9.10
2019-06-10T01:12:43.213Z,8.88
2019-06-10T01:15:13.996Z,7.83
2019-06-10T01:17:41.860Z,8.55
2019-06-10T01:20:10.745Z,9.75
2019-06-10T01:22:41.041Z,9.18
2019-06-10T01:25:09.854Z,9.45
2019-06-10T01:27:40.919Z,11.15
2019-06-10T01:30:16.781Z,11.70
2019-06-10T01:32:41.585Z,9.55
2019-06-10T01:35:11.550Z,10.45
2019-06-10T01:37:41.420Z,11.78
2019-06-10T01:40:12.951Z,11.00
2019-06-10T01:42:41.273Z,8.60
2019-06-10T01:45:12.484Z,9.48
2019-06-10T01:47:41.649Z,10.37
2019-06-10T01:52:41.104Z,10.13
2019-06-10T01:57:38.343Z,10.58
2019-06-10T02:00:17.055Z,9.55
2019-06-10T02:02:44.668Z,11.97
2019-06-10T02:05:13.258Z,9.68
2019-06-10T02:07:41.058Z,10.30
2019-06-10T02:10:11.810Z,10.13
2019-06-10T02:12:38.805Z,10.63
2019-06-10T02:15:07.313Z,11.10
2019-06-10T02:17:35.196Z,9.15
2019-06-10T02:20:04.785Z,10.25
2019-06-10T02:22:32.971Z,9.58
2019-06-10T02:25:01.324Z,10.98
2019-06-10T02:27:31.523Z,11.28
2019-06-10T02:30:03.835Z,11.25
2019-06-10T02:32:36.260Z,10.63
2019-06-10T02:35:13.230Z,11.10
2019-06-10T02:37:32.802Z,10.85
2019-06-10T02:39:58.203Z,12.15
2019-06-10T02:42:36.227Z,11.95
2019-06-10T02:45:05.133Z,12.95
2019-06-10T02:47:37.634Z,10.53
2019-06-10T02:50:07.887Z,9.85
2019-06-10T02:52:37.770Z,11.03
2019-06-10T02:55:04.094Z,10.58
2019-06-10T02:57:39.012Z,10.70
2019-06-10T03:00:06.456Z,13.98
2019-06-10T03:02:36.183Z,9.33
2019-06-10T03:05:04.468Z,11.53
2019-06-10T03:07:35.412Z,14.23
2019-06-10T03:10:04.670Z,11.30
2019-06-10T03:12:33.061Z,11.28
2019-06-10T03:15:02.135Z,12.90
2019-06-10T03:17:31.781Z,11.33
2019-06-10T03:20:02.140Z,11.20
2019-06-10T03:22:32.629Z,12.60
2019-06-10T03:24:59.889Z,10.70
2019-06-10T03:27:27.973Z,13.50
2019-06-10T03:29:56.052Z,12.60
2019-06-10T03:32:32.596Z,10.55
2019-06-10T03:37:25.680Z,13.08
2019-06-10T03:39:53.121Z,14.00
2019-06-10T03:42:23.332Z,10.58
2019-06-10T03:44:52.562Z,16.73
2019-06-10T03:47:21.824Z,14.33
2019-06-10T03:49:55.462Z,12.73
2019-06-10T03:52:22.473Z,15.13
2019-06-10T03:54:52.129Z,13.85
2019-06-10T03:57:23.335Z,14.20
2019-06-10T03:59:49.945Z,12.13
2019-06-10T04:02:17.559Z,12.63
2019-06-10T04:04:45.338Z,12.03
2019-06-10T04:07:14.237Z,12.15
2019-06-10T04:09:42.652Z,15.75
2019-06-10T04:12:12.553Z,15.88
2019-06-10T04:14:41.968Z,14.35
2019-06-10T04:17:12.933Z,13.62
2019-06-10T04:19:42.203Z,16.70
2019-06-10T04:22:10.175Z,14.55
2019-06-10T04:24:38.309Z,15.43
2019-06-10T04:27:06.536Z,12.75
2019-06-10T04:29:35.009Z,12.33
2019-06-10T04:32:03.225Z,17.45
2019-06-10T04:34:35.439Z,16.75
2019-06-10T04:37:04.067Z,12.88
2019-06-10T04:39:33.623Z,14.30
2019-06-10T04:42:02.409Z,13.00
2019-06-10T04:44:32.838Z,12.78
2019-06-10T04:47:02.534Z,13.68
2019-06-10T04:49:32.550Z,13.50
2019-06-10T04:52:00.175Z,14.35
2019-06-10T04:54:28.658Z,12.00
2019-06-10T04:56:57.848Z,12.68
2019-06-10T04:59:27.582Z,12.20
2019-06-10T05:01:55.859Z,12.70
2019-06-10T05:04:25.538Z,11.55
2019-06-10T05:06:53.434Z,13.88
2019-06-10T05:09:23.832Z,19.00
2019-06-10T05:11:52.262Z,11.12
2019-06-10T05:14:23.375Z,14.45
2019-06-10T05:16:50.394Z,12.98
2019-06-10T05:19:19.631Z,11.85
2019-06-10T05:21:47.567Z,12.78
2019-06-10T05:24:15.258Z,10.25
2019-06-10T05:26:43.023Z,10.80
2019-06-10T05:29:12.130Z,13.32
2019-06-10T05:31:43.248Z,13.88
2019-06-10T05:34:13.109Z,14.78
2019-06-10T05:36:43.538Z,10.75
2019-06-10T05:39:12.169Z,13.83
2019-06-10T05:41:40.151Z,12.43
2019-06-10T05:44:07.676Z,11.33
2019-06-10T05:46:35.469Z,13.32
2019-06-10T05:49:03.546Z,11.53
2019-06-10T05:51:35.091Z,12.63
2019-06-10T05:54:02.198Z,12.28
2019-06-10T05:56:33.514Z,15.93
2019-06-10T05:59:03.937Z,12.15
2019-06-10T06:01:36.290Z,12.30
2019-06-10T06:04:03.078Z,12.40
2019-06-10T06:06:33.762Z,11.40
2019-06-10T06:09:02.238Z,14.80
2019-06-10T06:11:32.474Z,15.00
2019-06-10T06:13:59.289Z,19.83
2019-06-10T06:16:29.900Z,17.82
2019-06-10T06:18:59.134Z,14.38
2019-06-10T06:21:32.457Z,17.37
2019-06-10T06:23:57.657Z,16.35
2019-06-10T06:26:26.517Z,22.77
2019-06-10T06:28:55.727Z,20.62
2019-06-10T06:31:26.141Z,19.60
2019-06-10T06:36:22.940Z,20.40
2019-06-10T06:38:53.032Z,24.30
2019-06-10T06:41:22.635Z,20.85
2019-06-10T06:43:53.119Z,19.00
2019-06-10T06:46:23.117Z,21.75
2019-06-10T06:48:54.785Z,18.40
2019-06-10T06:51:35.976Z,18.30
2019-06-10T06:53:56.306Z,16.95
2019-06-10T06:56:23.765Z,15.25
2019-06-10T06:58:52.412Z,15.80
2019-06-10T07:01:25.123Z,15.03
2019-06-10T07:03:53.285Z,13.93
2019-06-10T07:06:22.988Z,14.73
2019-06-10T07:09:04.117Z,17.05
2019-06-10T07:11:25.528Z,13.80
2019-06-10T07:13:55.500Z,14.73
2019-06-10T07:16:24.492Z,20.08
2019-06-10T07:18:53.885Z,12.95
2019-06-10T07:21:22.757Z,13.58
2019-06-10T07:23:52.807Z,13.88
2019-06-10T07:26:22.233Z,13.40
2019-06-10T07:28:53.454Z,14.07
2019-06-10T07:31:26.927Z,14.25
2019-06-10T07:36:19.701Z,10.45
2019-06-10T07:38:49.150Z,13.40
2019-06-10T07:41:17.672Z,11.07
2019-06-10T07:43:49.667Z,11.85
2019-06-10T07:48:47.883Z,12.37
2019-06-10T07:51:13.373Z,10.65
2019-06-10T07:53:44.618Z,9.88
2019-06-10T07:56:12.891Z,11.83
2019-06-10T07:58:47.015Z,10.72
2019-06-10T08:03:42.561Z,7.80
2019-06-10T08:06:12.954Z,13.08
2019-06-10T08:08:43.897Z,7.60
2019-06-10T08:11:13.708Z,11.90
2019-06-10T08:13:45.609Z,10.90
2019-06-10T08:16:13.076Z,9.48
2019-06-10T08:19:13.946Z,10.13
2019-06-10T08:21:12.456Z,8.63
2019-06-10T08:23:41.049Z,8.45
2019-06-10T08:26:12.453Z,8.53
2019-06-10T08:28:39.719Z,10.23
2019-06-10T08:31:08.300Z,11.70
2019-06-10T08:33:37.052Z,9.75
2019-06-10T08:36:05.247Z,9.55
2019-06-10T08:38:33.292Z,9.40
2019-06-10T08:41:03.249Z,11.38
2019-06-10T08:43:32.888Z,9.25
2019-06-10T08:46:02.623Z,11.18
2019-06-10T08:48:32.730Z,9.40
2019-06-10T08:51:00.125Z,10.63
2019-06-10T08:53:28.351Z,11.88
2019-06-10T08:55:56.915Z,11.22
2019-06-10T08:58:25.258Z,12.70
2019-06-10T09:00:53.969Z,10.90
2019-06-10T09:03:23.368Z,10.60
2019-06-10T09:05:54.469Z,13.65
2019-06-10T09:08:23.517Z,11.55
2019-06-10T09:10:54.330Z,13.75
2019-06-10T09:16:10.836Z,10.90
2019-06-10T09:18:29.172Z,11.25
2019-06-10T09:20:57.423Z,11.88
2019-06-10T09:23:25.765Z,10.82
2019-06-10T09:26:18.480Z,12.68
2019-06-10T09:28:55.575Z,11.70
2019-06-10T09:31:22.986Z,12.28
2019-06-10T09:33:54.398Z,10.68
2019-06-10T09:36:20.062Z,11.08
2019-06-10T09:38:49.090Z,10.13
2019-06-10T09:41:18.901Z,12.05
2019-06-10T09:44:23.960Z,11.12
2019-06-10T09:46:56.111Z,13.20
2019-06-10T09:49:25.741Z,11.65
2019-06-10T09:51:57.167Z,13.83
2019-06-10T09:54:23.947Z,12.60
2019-06-10T09:56:54.592Z,11.55
2019-06-10T09:59:23.501Z,15.10
2019-06-10T10:01:59.979Z,11.93
2019-06-10T10:04:23.706Z,10.60
2019-06-10T10:06:57.065Z,13.13
2019-06-10T10:09:23.283Z,12.28
2019-06-10T10:11:55.173Z,11.53
2019-06-10T10:14:23.042Z,13.05
2019-06-10T10:16:58.671Z,10.93
2019-06-10T10:19:23.043Z,10.72
2019-06-10T10:21:56.027Z,10.35
2019-06-10T10:24:23.001Z,11.50
2019-06-10T10:26:53.291Z,9.40
2019-06-10T10:29:20.755Z,9.83
2019-06-10T10:31:50.748Z,9.10
2019-06-10T10:34:18.657Z,10.10
2019-06-10T10:36:48.734Z,10.53
2019-06-10T10:39:16.946Z,9.70
2019-06-10T10:41:46.817Z,9.68
2019-06-10T10:44:14.848Z,10.32
2019-06-10T10:46:45.590Z,8.38
2019-06-10T10:49:14.759Z,8.08
2019-06-10T10:51:42.944Z,7.33
2019-06-10T10:54:22.469Z,8.40
2019-06-10T10:56:43.321Z,5.42
2019-06-10T10:59:13.313Z,7.47
2019-06-10T11:01:42.764Z,7.20
2019-06-10T11:04:13.244Z,7.60
2019-06-10T11:06:42.668Z,8.33
2019-06-10T11:09:12.720Z,8.00
2019-06-10T11:14:09.770Z,10.75
2019-06-10T11:16:39.199Z,9.58
2019-06-10T11:19:07.557Z,6.47
2019-06-10T11:21:36.230Z,9.58
2019-06-10T11:24:04.952Z,9.10
2019-06-10T11:26:33.107Z,8.93
2019-06-10T11:29:03.130Z,11.00
2019-06-10T11:33:59.185Z,7.83
2019-06-10T11:36:27.245Z,6.33
2019-06-10T11:38:56.758Z,7.95
2019-06-10T11:41:24.980Z,9.45
2019-06-10T11:43:56.057Z,7.10
2019-06-10T11:46:22.453Z,8.23
2019-06-10T11:48:53.659Z,8.50
2019-06-10T11:51:23.430Z,8.50
2019-06-10T11:53:54.354Z,9.03
2019-06-10T11:56:22.303Z,9.50
2019-06-10T11:58:55.163Z,9.20
2019-06-10T12:01:22.877Z,8.28
2019-06-10T12:06:22.851Z,6.62
2019-06-10T12:08:53.577Z,5.58
2019-06-10T12:13:53.721Z,8.73
2019-06-10T12:17:14.772Z,9.05
2019-06-10T12:18:53.741Z,8.65
2019-06-10T12:21:23.588Z,9.00
2019-06-10T12:23:55.925Z,7.97
2019-06-10T12:26:23.263Z,9.03
2019-06-10T12:28:54.509Z,8.55
2019-06-10T12:31:23.192Z,9.00
2019-06-10T12:33:55.272Z,9.75
2019-06-10T12:36:23.796Z,7.70
2019-06-10T12:38:56.420Z,9.53
2019-06-10T12:41:23.231Z,11.43
2019-06-10T12:43:54.830Z,8.90
2019-06-10T12:46:23.525Z,11.85
2019-06-10T12:48:53.967Z,9.73
2019-06-10T12:53:51.474Z,9.45
2019-06-10T12:56:19.486Z,10.08
2019-06-10T12:58:47.516Z,10.03
2019-06-10T13:01:15.208Z,11.18
2019-06-10T13:03:43.964Z,13.20
2019-06-10T13:06:13.016Z,10.33
2019-06-10T13:08:42.911Z,9.33
2019-06-10T13:11:13.269Z,8.23
2019-06-10T13:13:42.578Z,11.03
2019-06-10T13:16:13.897Z,10.63
2019-06-10T13:18:40.657Z,9.30
2019-06-10T13:23:40.163Z,11.00
2019-06-10T13:26:12.417Z,9.58
2019-06-10T13:28:37.721Z,9.70
2019-06-10T13:31:09.519Z,8.10
2019-06-10T13:33:36.386Z,7.00
2019-06-10T13:36:06.776Z,7.67
2019-06-10T13:38:34.826Z,8.95
2019-06-10T13:41:04.096Z,10.05
2019-06-10T13:43:33.861Z,7.83
2019-06-10T13:46:03.137Z,7.85
2019-06-10T13:48:32.179Z,7.75
2019-06-10T13:51:01.466Z,12.40
2019-06-10T13:53:29.569Z,6.97
2019-06-10T13:56:19.008Z,6.90
2019-06-10T13:58:27.293Z,9.60
2019-06-10T14:00:56.398Z,8.45
2019-06-10T14:03:24.944Z,8.57
2019-06-10T14:05:59.184Z,8.80
2019-06-10T14:10:53.670Z,6.87
2019-06-10T14:13:23.570Z,7.12
2019-06-10T14:18:22.885Z,7.03
2019-06-10T14:23:22.077Z,10.32
2019-06-10T14:28:35.846Z,8.75
2019-06-10T14:30:47.319Z,6.35
2019-06-10T14:33:16.728Z,8.68
2019-06-10T14:35:44.790Z,7.60
2019-06-10T14:38:15.408Z,7.55
2019-06-10T14:40:43.130Z,8.73
2019-06-10T14:43:13.501Z,8.23
2019-06-10T14:45:42.786Z,6.53
2019-06-10T14:48:11.501Z,8.85
2019-06-10T14:50:40.173Z,6.58
2019-06-10T14:53:08.955Z,7.08
2019-06-10T14:55:36.882Z,7.10
2019-06-10T14:58:05.391Z,7.80
2019-06-10T15:00:33.503Z,7.20
2019-06-10T15:03:05.104Z,7.05
2019-06-10T15:05:32.985Z,8.25
2019-06-10T15:08:03.144Z,9.23
2019-06-10T15:10:32.166Z,8.83
2019-06-10T15:13:02.218Z,8.85
2019-06-10T15:17:57.389Z,11.20
2019-06-10T15:20:25.480Z,9.65
2019-06-10T15:22:53.708Z,10.08
2019-06-10T15:25:27.817Z,11.12
2019-06-10T15:27:52.691Z,6.15
2019-06-10T15:30:26.543Z,12.25
2019-06-10T15:32:52.468Z,9.28
2019-06-10T15:35:22.114Z,7.75
2019-06-10T15:37:52.590Z,8.45
2019-06-10T15:40:20.219Z,9.60
2019-06-10T15:42:48.838Z,8.08
2019-06-10T15:45:19.465Z,8.95
2019-06-10T15:47:47.762Z,10.53
2019-06-10T15:50:17.635Z,10.35
2019-06-10T15:52:46.635Z,10.03
2019-06-10T15:55:47.704Z,8.85
2019-06-10T15:57:46.812Z,7.17
2019-06-10T16:00:28.768Z,9.20
2019-06-10T16:02:55.398Z,10.98
2019-06-10T16:05:25.344Z,20.92
2019-06-10T16:07:58.678Z,13.95
2019-06-10T16:10:32.560Z,13.62
2019-06-10T16:13:03.917Z,14.68
2019-06-10T16:15:37.339Z,8.53
2019-06-10T16:18:13.642Z,11.85
2019-06-10T16:29:19.137Z,18.48
2019-06-10T16:31:46.646Z,22.32
2019-06-10T16:34:14.712Z,24.77
2019-06-10T16:36:42.764Z,32.17
2019-06-10T16:40:53.972Z,28.47
2019-06-10T16:43:25.427Z,28.05
2019-06-10T16:45:52.516Z,36.20
2019-06-10T16:48:21.433Z,29.90
2019-06-10T16:50:48.860Z,29.50
2019-06-10T16:53:18.066Z,18.02
2019-06-10T16:55:45.389Z,24.70
2019-06-10T16:58:13.104Z,28.40
2019-06-10T17:00:43.021Z,25.37
2019-06-10T17:03:09.617Z,24.67
2019-06-10T17:05:37.252Z,27.67
2019-06-10T17:08:04.410Z,33.15
2019-06-10T17:10:34.409Z,27.60
2019-06-10T17:13:37.944Z,27.10
2019-06-10T17:16:05.663Z,35.03
2019-06-10T17:18:33.595Z,31.70
2019-06-10T17:21:03.241Z,32.53
2019-06-10T17:23:36.017Z,33.18
2019-06-10T17:26:00.792Z,30.00
2019-06-10T17:28:31.696Z,30.10
2019-06-10T17:30:58.708Z,25.75
2019-06-10T17:33:27.808Z,29.12
2019-06-10T17:35:55.417Z,35.68
2019-06-10T17:38:24.611Z,34.98
2019-06-10T17:40:52.217Z,31.37
2019-06-10T17:43:20.909Z,29.35
2019-06-10T17:45:52.757Z,30.10
2019-06-10T17:48:22.289Z,35.08
2019-06-10T17:50:49.029Z,34.10
2019-06-10T17:53:17.997Z,32.33
2019-06-10T17:55:46.131Z,41.28
2019-06-10T17:58:14.756Z,43.98
2019-06-10T18:00:42.313Z,40.40
2019-06-10T18:03:10.297Z,38.65
2019-06-10T18:05:38.720Z,33.98
2019-06-10T18:08:29.548Z,37.50
2019-06-10T18:10:57.083Z,38.05
2019-06-10T18:13:25.016Z,41.68
2019-06-10T18:17:44.636Z,35.23
2019-06-10T18:20:13.568Z,37.73
2019-06-10T18:22:40.944Z,36.03
2019-06-10T18:25:08.368Z,32.08
2019-06-10T18:27:36.786Z,31.62
2019-06-10T18:30:10.911Z,29.00
2019-06-10T18:32:36.012Z,31.23
2019-06-10T18:35:03.496Z,31.45
2019-06-10T18:37:34.533Z,27.75
2019-06-10T18:41:46.032Z,34.50
2019-06-10T18:44:22.723Z,31.12
2019-06-10T18:47:16.223Z,28.57
2019-06-10T18:49:44.452Z,31.57
2019-06-10T18:52:14.916Z,34.03
2019-06-10T18:54:43.504Z,36.03
2019-06-10T18:57:11.429Z,27.35
2019-06-10T18:59:42.641Z,28.30
2019-06-10T19:04:38.328Z,40.48
2019-06-10T19:07:05.804Z,31.87
2019-06-10T19:09:37.665Z,32.88
2019-06-10T19:14:33.572Z,37.93
2019-06-10T19:17:00.061Z,41.00
2019-06-10T19:19:27.341Z,40.35
2019-06-10T19:22:05.253Z,40.03
2019-06-10T19:24:24.293Z,39.65
2019-06-10T19:26:52.758Z,46.58
2019-06-10T19:29:30.799Z,41.75
2019-06-10T19:31:52.521Z,50.33
2019-06-10T19:34:19.779Z,49.53
2019-06-10T19:36:48.249Z,45.12
2019-06-10T19:39:15.545Z,43.73
2019-06-10T19:41:47.033Z,44.13
2019-06-10T19:44:13.134Z,50.45
2019-06-10T19:46:42.973Z,58.70
2019-06-10T19:49:13.410Z,52.65
2019-06-10T19:51:41.657Z,47.65
2019-06-10T19:54:12.710Z,45.60
2019-06-10T19:56:39.684Z,46.90
2019-06-10T19:59:08.592Z,49.73
2019-06-10T20:01:38.618Z,48.98
2019-06-10T20:04:05.484Z,52.78
2019-06-10T20:06:33.849Z,44.67
2019-06-10T20:09:02.751Z,47.67
2019-06-10T20:11:32.211Z,45.50
2019-06-10T20:13:59.382Z,45.30
2019-06-10T20:16:27.092Z,51.48
2019-06-10T20:18:54.214Z,42.93
2019-06-10T20:21:22.710Z,46.98
2019-06-10T20:23:50.164Z,44.42
2019-06-10T20:26:17.509Z,46.55
2019-06-10T20:28:46.404Z,44.85
2019-06-10T20:31:13.748Z,46.53
2019-06-10T20:33:43.094Z,44.30
2019-06-10T20:36:17.670Z,45.45
2019-06-10T20:38:40.047Z,45.25
2019-06-10T20:41:07.462Z,44.00
2019-06-10T20:43:35.153Z,44.48
2019-06-10T20:46:05.777Z,42.25
2019-06-10T20:48:33.189Z,46.50
2019-06-10T20:53:18.526Z,43.63
2019-06-10T20:55:51.325Z,51.88
2019-06-10T20:58:14.626Z,48.63
2019-06-10T21:00:49.965Z,53.52
2019-06-10T21:03:13.413Z,51.25
2019-06-10T21:05:43.851Z,50.80
2019-06-10T21:08:12.429Z,55.52
2019-06-10T21:10:42.477Z,49.98
2019-06-10T21:13:12.360Z,49.33
2019-06-10T21:15:45.686Z,51.68
2019-06-10T21:18:13.227Z,44.33
2019-06-10T21:20:44.027Z,46.73
2019-06-10T21:23:13.690Z,45.20
2019-06-10T21:25:41.223Z,39.25
2019-06-10T21:28:12.981Z,46.23
2019-06-10T21:30:48.188Z,49.42
2019-06-10T21:33:12.978Z,38.95
2019-06-10T21:35:44.099Z,43.15
2019-06-10T21:38:12.707Z,46.18
2019-06-10T21:40:42.481Z,43.75
2019-06-10T21:43:15.460Z,50.52
2019-06-10T21:45:51.307Z,52.85
2019-06-10T21:48:25.687Z,49.58
2019-06-10T21:51:09.432Z,49.95
2019-06-10T21:53:46.637Z,49.27
2019-06-10T21:56:22.329Z,55.95
2019-06-10T21:59:02.274Z,54.18
2019-06-10T22:01:44.347Z,46.65
2019-06-10T22:04:32.634Z,58.78
2019-06-10T22:07:07.532Z,55.33
2019-06-10T22:09:50.335Z,58.08
2019-06-10T22:12:42.267Z,56.92
2019-06-10T22:15:29.493Z,62.30
2019-06-10T22:17:58.243Z,63.23
2019-06-10T22:20:26.526Z,61.88
2019-06-10T22:22:56.115Z,66.62
2019-06-10T22:25:23.855Z,64.25
2019-06-10T22:27:52.051Z,61.33
2019-06-10T22:30:20.019Z,63.28
2019-06-10T22:32:47.801Z,62.17
2019-06-10T22:35:15.635Z,65.83
2019-06-10T22:37:43.341Z,60.63
2019-06-10T22:40:12.361Z,59.67
2019-06-10T22:42:41.403Z,61.05
2019-06-10T22:45:09.382Z,62.80
2019-06-10T22:47:37.531Z,64.07
2019-06-10T22:50:07.607Z,64.10
2019-06-10T22:52:35.222Z,68.57
2019-06-10T22:55:03.655Z,69.87
2019-06-10T22:57:31.885Z,66.42
2019-06-10T22:59:59.530Z,65.47
2019-06-10T23:02:27.614Z,66.62
2019-06-10T23:04:58.025Z,68.95
2019-06-10T23:07:26.754Z,75.32
2019-06-10T23:09:57.831Z,69.70
2019-06-10T23:12:27.271Z,72.03
2019-06-10T23:14:56.263Z,71.95
2019-06-10T23:17:24.786Z,67.07
2019-06-10T23:19:56.622Z,64.72
2019-06-10T23:22:24.919Z,60.98
2019-06-10T23:24:55.716Z,65.05
2019-06-10T23:27:26.038Z,60.98
2019-06-10T23:29:57.575Z,61.08
2019-06-10T23:32:28.528Z,61.88
2019-06-10T23:35:01.022Z,63.63
2019-06-10T23:37:32.252Z,59.00
2019-06-10T23:40:03.980Z,55.73
2019-06-10T23:42:32.071Z,63.13
2019-06-10T23:45:01.846Z,59.83
2019-06-10T23:47:29.433Z,51.88
2019-06-10T23:49:57.690Z,56.85
2019-06-10T23:52:25.361Z,61.65
2019-06-10T23:54:54.438Z,56.58
2019-06-10T23:57:22.427Z,56.37
2019-06-10T23:59:52.491Z,58.17
